Time;durP1;ratioP1;P1;durP2;ratioP2;P2;SDS_P1;SDS_P2;PMS_P1;PMS_P2;Temp;Humidity;BMP_temperature;BMP_pressure;BME280_temperature;BME280_humidity;BME280_pressure;Samples;Min_cycle;Max_cycle;Signal;HPM_P1;HPM_P2
2023/04/28 00:00:24;;;;;;;12.13;6.53;;;;;;;-145.18;100.00;47519.97;4932824;29;20285;-64
2023/04/28 00:02:51;;;;;;;12.20;6.03;;;;;;;-145.18;100.00;47516.06;4931868;29;20545;-64
2023/04/28 00:05:16;;;;;;;10.20;6.50;;;;;;;-145.18;100.00;47529.72;4931985;29;20059;-64
2023/04/28 00:07:41;;;;;;;12.57;6.40;;;;;;;-145.18;100.00;47535.59;4932078;29;20274;-64
2023/04/28 00:10:08;;;;;;;13.57;6.70;;;;;;;-145.18;100.00;47555.13;4899518;29;20047;-64
2023/04/28 00:12:33;;;;;;;12.07;6.53;;;;;;;-145.18;100.00;47529.72;4932213;29;20063;-64
2023/04/28 00:14:58;;;;;;;13.13;6.47;;;;;;;-145.18;100.00;47547.31;4947044;29;20300;-64
2023/04/28 00:17:24;;;;;;;14.23;6.37;;;;;;;-145.18;100.00;47543.41;4951411;29;20046;-64
2023/04/28 00:19:49;;;;;;;10.13;5.83;;;;;;;-145.18;100.00;47570.75;4954115;28;20914;-64
2023/04/28 00:22:14;;;;;;;10.10;6.63;;;;;;;-145.18;100.00;47570.75;4954840;29;20035;-65
2023/04/28 00:24:40;;;;;;;13.10;6.10;;;;;;;-145.18;100.00;47559.03;4955285;29;20035;-64
2023/04/28 00:27:06;;;;;;;11.70;6.40;;;;;;;-145.18;100.00;47588.34;4950213;29;20086;-64
2023/04/28 00:29:32;;;;;;;10.83;6.73;;;;;;;-145.18;100.00;47598.09;4955347;29;20047;-64
2023/04/28 00:31:57;;;;;;;11.20;6.43;;;;;;;-145.18;100.00;47586.38;4954541;29;20480;-65
2023/04/28 00:34:22;;;;;;;10.87;6.20;;;;;;;-145.18;100.00;47572.72;4949218;29;20102;-64
2023/04/28 00:36:48;;;;;;;12.43;6.63;;;;;;;-145.18;100.00;47564.91;4935596;29;20040;-65
2023/04/28 00:39:15;;;;;;;10.23;6.27;;;;;;;-145.18;100.00;47566.84;4935953;29;20046;-64
2023/04/28 00:41:40;;;;;;;13.97;6.70;;;;;;;-145.18;100.00;47570.75;4936511;29;20047;-64
2023/04/28 00:44:06;;;;;;;12.30;6.00;;;;;;;-145.18;100.00;47512.16;4944559;29;20294;-65
2023/04/28 00:46:32;;;;;;;10.83;6.00;;;;;;;-145.18;100.00;47508.22;4937335;29;20035;-65
2023/04/28 00:48:58;;;;;;;14.43;6.50;;;;;;;-145.18;100.00;47476.97;4954665;29;20035;-64
2023/04/28 00:51:24;;;;;;;12.40;7.20;;;;;;;-145.18;100.00;47490.66;4954455;29;20305;-64
2023/04/28 00:53:50;;;;;;;13.23;6.47;;;;;;;-145.18;100.00;47402.72;4954672;29;20300;-64
2023/04/28 00:56:16;;;;;;;10.07;6.03;;;;;;;-145.18;100.00;47482.84;4954415;29;20031;-64
2023/04/28 00:58:42;;;;;;;10.43;6.53;;;;;;;-145.18;100.00;47496.50;4954651;29;20354;-64
2023/04/28 01:01:08;;;;;;;10.90;6.40;;;;;;;-145.18;100.00;47459.41;4954024;29;20034;-64
2023/04/28 01:03:36;;;;;;;9.93;6.10;;;;;;;-145.18;100.00;47549.25;4954091;29;20360;-64
2023/04/28 01:06:03;;;;;;;11.83;6.50;;;;;;;-145.18;100.00;47551.22;4954029;29;20289;-64
2023/04/28 01:08:31;;;;;;;12.90;6.90;;;;;;;-145.18;100.00;47543.41;4954544;29;20424;-64
2023/04/28 01:10:56;;;;;;;13.50;7.93;;;;;;;-145.18;100.00;47549.25;4953988;29;20289;-64
2023/04/28 01:13:22;;;;;;;10.83;5.87;;;;;;;-145.18;100.00;47570.75;4954017;29;20284;-64
2023/04/28 01:15:47;;;;;;;11.73;6.77;;;;;;;-145.18;100.00;47590.28;4936915;29;20043;-64
2023/04/28 01:18:14;;;;;;;12.27;6.40;;;;;;;-145.18;100.00;47594.19;4954146;29;20067;-64
2023/04/28 01:20:40;;;;;;;11.60;6.43;;;;;;;-145.18;100.00;47602.00;4936682;29;20044;-64
2023/04/28 01:23:13;;;;;;;10.47;5.97;;;;;;;-145.18;100.00;47562.94;4934775;29;20262;-64
2023/04/28 01:25:40;;;;;;;11.93;6.80;;;;;;;-145.18;100.00;47566.84;4934841;29;20032;-64
2023/04/28 01:28:06;;;;;;;11.40;6.37;;;;;;;-145.18;100.00;47531.69;4934224;29;20374;-64
2023/04/28 01:30:31;;;;;;;14.60;6.83;;;;;;;-145.18;100.00;47523.88;4952955;28;20304;-64
2023/04/28 01:32:57;;;;;;;10.17;6.00;;;;;;;-145.18;100.00;47533.63;4952109;29;20489;-64
2023/04/28 01:35:22;;;;;;;15.47;7.00;;;;;;;-145.18;100.00;47471.13;4953620;29;20086;-64
2023/04/28 01:37:48;;;;;;;15.20;7.27;;;;;;;-145.18;100.00;47512.16;4953563;29;20115;-64
2023/04/28 01:40:13;;;;;;;14.43;6.53;;;;;;;-145.18;100.00;47594.19;4953654;29;20571;-64
2023/04/28 01:42:39;;;;;;;12.13;6.10;;;;;;;-145.18;100.00;47598.09;4953390;29;20055;-64
2023/04/28 01:45:05;;;;;;;13.03;7.00;;;;;;;-145.18;100.00;47586.38;4953792;29;20039;-64
2023/04/28 01:47:31;;;;;;;13.03;7.00;;;;;;;-145.18;100.00;47627.41;4953241;29;20039;-64
2023/04/28 01:49:56;;;;;;;14.37;6.33;;;;;;;-145.18;100.00;47570.75;4953660;29;20277;-64
2023/04/28 01:52:23;;;;;;;12.30;6.87;;;;;;;-145.18;100.00;47564.91;4938108;29;20059;-64
2023/04/28 01:54:49;;;;;;;12.17;6.60;;;;;;;-145.18;100.00;47578.56;4934167;29;20409;-64
2023/04/28 01:57:15;;;;;;;11.10;6.67;;;;;;;-145.18;100.00;47547.31;4934250;29;20313;-64
2023/04/28 01:59:40;;;;;;;13.87;6.37;;;;;;;-145.18;100.00;47594.19;4919918;29;20288;-64
2023/04/28 02:02:05;;;;;;;12.50;6.73;;;;;;;-145.18;100.00;47580.53;5282782;23;20061;-63
2023/04/28 02:04:31;;;;;;;14.20;7.07;;;;;;;-145.18;100.00;47580.53;4981674;28;20049;-64
2023/04/28 02:06:57;;;;;;;14.97;6.80;;;;;;;-145.18;100.00;47570.75;4986321;28;20042;-64
2023/04/28 02:09:22;;;;;;;10.50;6.67;;;;;;;-145.18;100.00;47584.44;4991916;28;20034;-64
2023/04/28 02:11:48;;;;;;;13.67;7.30;;;;;;;-145.18;100.00;47598.09;4972679;28;20839;-64
2023/04/28 02:14:13;;;;;;;14.77;6.87;;;;;;;-145.18;100.00;47594.19;4972733;28;20117;-64
2023/04/28 02:16:39;;;;;;;11.20;6.60;;;;;;;-145.18;100.00;47570.75;4972633;28;20030;-64
2023/04/28 02:19:04;;;;;;;14.30;7.20;;;;;;;-145.18;100.00;47570.75;4972591;28;20140;-64
2023/04/28 02:21:30;;;;;;;14.17;6.47;;;;;;;-145.18;100.00;47561.00;4972774;28;20507;-64
2023/04/28 02:23:56;;;;;;;15.63;6.83;;;;;;;-145.18;100.00;47568.81;4975993;28;20034;-64
2023/04/28 02:26:21;;;;;;;14.30;6.53;;;;;;;-145.18;100.00;47586.38;4981350;28;20282;-64
2023/04/28 02:28:48;;;;;;;13.10;6.30;;;;;;;-145.18;100.00;47582.47;4991208;28;20048;-65
2023/04/28 02:31:13;;;;;;;14.70;6.53;;;;;;;-145.18;100.00;47592.25;4985506;28;20138;-64
2023/04/28 02:33:39;;;;;;;10.37;6.33;;;;;;;-145.18;100.00;47584.44;4972359;28;21041;-64
2023/04/28 02:36:05;;;;;;;14.60;6.60;;;;;;;-145.18;100.00;47586.38;4972040;28;20065;-64
2023/04/28 02:38:31;;;;;;;14.63;7.33;;;;;;;-145.18;100.00;47605.94;4972154;28;20023;-64
2023/04/28 02:41:07;;;;;;;11.40;7.13;;;;;;;-145.18;100.00;47584.44;4972469;28;20313;-64
2023/04/28 02:43:34;;;;;;;11.10;6.60;;;;;;;-145.18;100.00;47568.81;4971977;28;20026;-64
2023/04/28 02:46:01;;;;;;;12.50;6.90;;;;;;;-145.18;100.00;47574.66;4971944;28;20768;-64
2023/04/28 02:48:26;;;;;;;12.30;6.47;;;;;;;-145.18;100.00;47590.28;5031868;23;20331;-65
2023/04/28 02:50:52;;;;;;;11.30;6.90;;;;;;;-145.18;100.00;47588.34;4973571;28;20411;-65
2023/04/28 02:53:21;;;;;;;14.13;6.47;;;;;;;-145.18;100.00;47590.28;4957504;28;20030;-65
2023/04/28 02:55:46;;;;;;;14.37;6.77;;;;;;;-145.18;100.00;47580.53;4979245;28;20388;-65
2023/04/28 02:58:12;;;;;;;17.47;7.97;;;;;;;-145.18;100.00;47605.94;4991181;28;20308;-65
2023/04/28 03:00:38;;;;;;;12.50;6.83;;;;;;;-145.18;100.00;47588.34;4991173;28;20042;-65
2023/04/28 03:03:03;;;;;;;16.80;7.97;;;;;;;-145.18;100.00;47576.63;4990694;28;20054;-65
2023/04/28 03:05:29;;;;;;;12.97;7.20;;;;;;;-145.18;100.00;47555.13;4991367;28;20519;-65
2023/04/28 03:07:54;;;;;;;14.27;6.63;;;;;;;-145.18;100.00;47553.16;4990787;28;20097;-65
2023/04/28 03:10:20;;;;;;;15.93;6.87;;;;;;;-145.18;100.00;47551.22;4990965;28;20073;-65
2023/04/28 03:12:45;;;;;;;11.07;6.47;;;;;;;-145.18;100.00;47519.97;4990750;28;20464;-65
2023/04/28 03:15:10;;;;;;;13.50;7.13;;;;;;;-145.18;100.00;47461.34;4973659;28;20034;-65
2023/04/28 03:17:38;;;;;;;11.67;6.53;;;;;;;-145.18;100.00;47434.00;4990081;28;20046;-65
2023/04/28 03:20:04;;;;;;;11.73;7.27;;;;;;;-145.18;100.00;47396.88;4990569;28;20057;-65
2023/04/28 03:22:30;;;;;;;12.60;7.27;;;;;;;-145.18;100.00;47330.44;4990649;28;20273;-65
2023/04/28 03:24:55;;;;;;;10.87;6.77;;;;;;;-145.18;100.00;47187.84;4990889;28;20359;-65
2023/04/28 03:27:21;;;;;;;12.27;6.77;;;;;;;-145.18;100.00;47117.50;4990736;28;20109;-65
2023/04/28 03:29:46;;;;;;;13.37;7.93;;;;;;;-145.18;100.00;47092.09;4990557;28;20049;-65
2023/04/28 03:32:11;;;;;;;13.07;7.07;;;;;;;-145.18;100.00;47156.56;4990893;28;20077;-65
2023/04/28 03:34:37;;;;;;;13.10;7.57;;;;;;;-145.18;100.00;47066.72;4990859;28;20097;-65
2023/04/28 03:37:02;;;;;;;11.87;7.00;;;;;;;-145.18;100.00;47031.53;4990333;28;20339;-65
2023/04/28 03:39:27;;;;;;;10.83;6.93;;;;;;;-145.18;100.00;47029.59;4973613;28;20098;-65
2023/04/28 03:41:53;;;;;;;11.63;7.17;;;;;;;-145.18;100.00;46971.00;4970984;28;20050;-65
2023/04/28 03:44:18;;;;;;;12.77;7.43;;;;;;;-145.18;100.00;46976.84;4971398;28;20041;-65
2023/04/28 03:46:43;;;;;;;16.80;7.30;;;;;;;-145.18;100.00;46896.75;4970964;28;20066;-66
2023/04/28 03:49:09;;;;;;;12.83;7.60;;;;;;;-145.18;100.00;46896.75;4971005;28;20460;-65
2023/04/28 03:51:34;;;;;;;15.83;7.33;;;;;;;-145.18;100.00;46941.69;4971051;28;20038;-65
2023/04/28 03:54:00;;;;;;;12.00;7.20;;;;;;;-145.18;100.00;46896.75;4970181;28;20039;-65
2023/04/28 03:56:25;;;;;;;13.87;7.80;;;;;;;-145.18;100.00;46869.41;4971355;28;20387;-65
2023/04/28 03:58:51;;;;;;;13.10;7.77;;;;;;;-145.18;100.00;46849.88;4970869;28;20042;-65
2023/04/28 04:01:16;;;;;;;14.77;8.70;;;;;;;-145.18;100.00;46838.16;4970797;28;20035;-65
2023/04/28 04:03:41;;;;;;;16.23;8.33;;;;;;;-145.18;100.00;46873.31;4970786;28;20043;-65
2023/04/28 04:06:07;;;;;;;14.40;7.73;;;;;;;-145.18;100.00;46834.25;4971327;28;20090;-65
2023/04/28 04:08:32;;;;;;;16.93;8.13;;;;;;;-145.18;100.00;46828.38;4971017;28;20031;-65
2023/04/28 04:10:58;;;;;;;17.40;8.57;;;;;;;-145.18;100.00;46828.38;4970883;28;20455;-65
2023/04/28 04:13:23;;;;;;;15.90;8.37;;;;;;;-145.18;100.00;46822.53;4969246;28;20054;-65
2023/04/28 04:15:49;;;;;;;15.73;8.20;;;;;;;-145.18;100.00;46808.84;4957401;28;20035;-65
2023/04/28 04:18:15;;;;;;;17.77;8.30;;;;;;;-145.18;100.00;46789.31;4970539;28;20118;-65
2023/04/28 04:20:40;;;;;;;17.47;8.83;;;;;;;-145.18;100.00;46812.75;4970492;28;20287;-65
2023/04/28 04:23:06;;;;;;;13.20;8.17;;;;;;;-145.18;100.00;46785.41;4968812;28;20046;-65
2023/04/28 04:25:32;;;;;;;13.70;7.70;;;;;;;-145.18;100.00;46763.91;4960726;28;20035;-65
2023/04/28 04:27:58;;;;;;;13.47;8.20;;;;;;;-145.18;100.00;46777.59;4956028;28;20043;-65
2023/04/28 04:30:23;;;;;;;19.67;7.67;;;;;;;-145.18;100.00;46793.22;4958160;28;20031;-65
2023/04/28 04:32:49;;;;;;;21.00;7.67;;;;;;;-145.18;100.00;46763.91;4952708;28;20351;-65
2023/04/28 04:35:14;;;;;;;17.37;9.30;;;;;;;-145.18;100.00;46724.84;4970249;28;20066;-65
2023/04/28 04:37:40;;;;;;;15.27;8.87;;;;;;;-145.18;100.00;46730.72;4962563;28;20464;-65
2023/04/28 04:40:06;;;;;;;15.20;8.33;;;;;;;-145.18;100.00;46711.19;4959443;28;20050;-65
2023/04/28 04:42:31;;;;;;;14.47;8.23;;;;;;;-145.18;100.00;46699.47;4958595;28;20118;-65
2023/04/28 04:44:57;;;;;;;15.33;8.33;;;;;;;-145.18;100.00;46699.47;4960588;28;20416;-65
2023/04/28 04:47:22;;;;;;;15.07;8.73;;;;;;;-145.18;100.00;46691.66;4962773;28;20047;-66
2023/04/28 04:49:49;;;;;;;13.93;8.47;;;;;;;-145.18;100.00;46677.97;4970022;28;20085;-66
2023/04/28 04:52:14;;;;;;;17.60;8.87;;;;;;;-145.18;100.00;46687.75;4970319;28;20031;-66
2023/04/28 04:54:40;;;;;;;17.23;8.93;;;;;;;-145.18;100.00;46662.34;4970637;28;20277;-66
2023/04/28 04:57:05;;;;;;;17.33;9.80;;;;;;;-145.18;100.00;46652.59;4975882;28;20061;-65
2023/04/28 04:59:31;;;;;;;16.87;9.47;;;;;;;-145.18;100.00;46656.50;4990018;28;20058;-65
2023/04/28 05:01:57;;;;;;;16.33;9.20;;;;;;;-145.18;100.00;46631.09;4989992;28;20042;-66
2023/04/28 05:04:22;;;;;;;20.47;11.13;;;;;;;-145.18;100.00;46640.88;4989833;28;20030;-66
2023/04/28 05:06:48;;;;;;;19.93;9.30;;;;;;;-145.18;100.00;46636.94;4975458;28;20038;-66
2023/04/28 05:09:13;;;;;;;18.43;9.53;;;;;;;-145.18;100.00;46636.94;4974302;28;20035;-66
2023/04/28 05:11:40;;;;;;;18.33;9.30;;;;;;;-145.18;100.00;46631.09;4973780;28;20094;-66
2023/04/28 05:14:05;;;;;;;18.33;9.50;;;;;;;-145.18;100.00;46617.41;4973809;28;20486;-66
2023/04/28 05:16:31;;;;;;;17.07;9.80;;;;;;;-145.18;100.00;46611.56;4974019;28;20360;-66
2023/04/28 05:18:56;;;;;;;19.27;9.53;;;;;;;-145.18;100.00;46654.53;4973464;28;20512;-66
2023/04/28 05:21:21;;;;;;;16.50;9.53;;;;;;;-145.18;100.00;46652.59;4956332;28;20031;-66
2023/04/28 05:23:47;;;;;;;20.67;10.67;;;;;;;-145.18;100.00;46636.94;4973540;28;20125;-65
2023/04/28 05:26:12;;;;;;;25.00;11.13;;;;;;;-145.18;100.00;46635.00;4974025;28;20023;-66
2023/04/28 05:28:39;;;;;;;19.90;11.43;;;;;;;-145.18;100.00;46635.00;4981698;28;20483;-66
2023/04/28 05:31:05;;;;;;;21.70;10.40;;;;;;;-145.18;100.00;46625.22;4992341;28;20029;-66
2023/04/28 05:33:30;;;;;;;24.00;10.40;;;;;;;-145.18;100.00;46617.41;4984079;28;20285;-66
2023/04/28 05:35:56;;;;;;;16.97;11.07;;;;;;;-145.18;100.00;46623.28;4983054;28;20057;-66
2023/04/28 05:38:21;;;;;;;26.47;10.60;;;;;;;-145.18;100.00;46617.41;4992718;28;20042;-68
2023/04/28 05:40:47;;;;;;;20.33;11.53;;;;;;;-145.18;100.00;46613.50;4992910;28;20026;-68
2023/04/28 05:43:13;;;;;;;18.77;10.40;;;;;;;-145.18;100.00;46625.22;4992549;28;20037;-68
2023/04/28 05:45:38;;;;;;;22.33;11.60;;;;;;;-145.18;100.00;46654.53;4990855;28;20399;-68
2023/04/28 05:48:04;;;;;;;19.33;12.07;;;;;;;-145.18;100.00;46662.34;4976924;28;20041;-68
2023/04/28 05:50:29;;;;;;;20.73;12.50;;;;;;;-145.18;100.00;46681.88;4976021;28;20058;-69
2023/04/28 05:52:55;;;;;;;19.50;11.93;;;;;;;-145.18;100.00;46697.50;4972528;28;20030;-68
2023/04/28 05:55:20;;;;;;;22.10;12.77;;;;;;;-145.18;100.00;46705.31;4969979;28;20035;-68
2023/04/28 05:57:46;;;;;;;22.50;13.20;;;;;;;-145.18;100.00;46703.38;4972074;28;20041;-67
2023/04/28 06:00:12;;;;;;;25.30;12.80;;;;;;;-145.18;100.00;46703.38;4972382;28;20042;-68
2023/04/28 06:02:37;;;;;;;23.67;13.00;;;;;;;-145.18;100.00;46703.38;4972454;28;20031;-68
2023/04/28 06:05:03;;;;;;;26.10;13.73;;;;;;;-145.18;100.00;46697.50;4970438;28;20331;-67
2023/04/28 06:07:29;;;;;;;28.70;14.00;;;;;;;-145.18;100.00;46697.50;4971021;28;20094;-67
2023/04/28 06:09:54;;;;;;;24.23;14.07;;;;;;;-145.18;100.00;46695.56;4958808;28;20872;-67
2023/04/28 06:12:20;;;;;;;36.33;16.17;;;;;;;-145.18;100.00;46693.59;4990196;28;20062;-67
2023/04/28 06:14:45;;;;;;;25.53;14.33;;;;;;;-145.18;100.00;46691.66;4956456;28;21256;-66
2023/04/28 06:17:10;;;;;;;26.07;14.20;;;;;;;-145.18;100.00;46695.56;4961697;28;20407;-67
2023/04/28 06:19:36;;;;;;;26.57;15.13;;;;;;;-145.18;100.00;46689.69;4968981;28;20129;-67
2023/04/28 06:22:01;;;;;;;25.93;15.27;;;;;;;-145.18;100.00;46687.75;4971450;28;20121;-67
2023/04/28 06:24:26;;;;;;;33.70;16.20;;;;;;;-145.18;100.00;46685.78;4977270;28;20050;-67
2023/04/28 06:26:53;;;;;;;34.23;16.87;;;;;;;-145.18;100.00;46681.88;4972100;28;20027;-67
2023/04/28 06:29:19;;;;;;;36.83;16.90;;;;;;;-145.18;100.00;46677.97;4971270;28;20039;-67
2023/04/28 06:31:44;;;;;;;32.80;16.60;;;;;;;-145.18;100.00;46679.94;4972027;28;20289;-67
2023/04/28 06:34:10;;;;;;;25.27;14.13;;;;;;;-145.18;100.00;46679.94;4971617;28;20295;-66
2023/04/28 06:36:35;;;;;;;26.53;14.47;;;;;;;-145.18;100.00;46677.97;4972216;28;20031;-68
2023/04/28 06:39:01;;;;;;;25.93;13.87;;;;;;;-145.18;100.00;46679.94;4970552;28;20101;-68
2023/04/28 06:41:28;;;;;;;25.07;14.00;;;;;;;-145.18;100.00;46679.94;4986325;28;20088;-67
2023/04/28 06:43:53;;;;;;;21.23;13.70;;;;;;;-145.18;100.00;46681.88;4981429;28;20026;-67
2023/04/28 06:46:19;;;;;;;24.33;13.80;;;;;;;-145.18;100.00;46679.94;4982176;28;20924;-67
2023/04/28 06:48:44;;;;;;;25.37;14.23;;;;;;;-145.18;100.00;46672.13;4977297;28;20039;-67
2023/04/28 06:51:09;;;;;;;23.47;14.27;;;;;;;-145.18;100.00;46679.94;4982506;28;20039;-67
2023/04/28 06:53:36;;;;;;;23.23;14.37;;;;;;;-145.18;100.00;46676.03;4981436;28;20169;-67
2023/04/28 06:56:01;;;;;;;23.10;14.20;;;;;;;-145.18;100.00;46677.97;4981758;28;20073;-67
2023/04/28 06:58:27;;;;;;;24.70;14.87;;;;;;;-145.18;100.00;46674.06;4970990;28;20782;-67
2023/04/28 07:00:52;;;;;;;25.70;14.17;;;;;;;-145.18;100.00;46674.06;4961257;28;20435;-67
2023/04/28 07:03:18;;;;;;;24.87;15.13;;;;;;;-145.18;100.00;46677.97;4977077;28;20451;-68
2023/04/28 07:05:43;;;;;;;26.43;14.50;;;;;;;-145.18;100.00;46670.16;4976239;28;20097;-67
2023/04/28 07:08:09;;;;;;;23.37;14.63;;;;;;;-145.18;100.00;46668.22;4981966;28;20113;-67
2023/04/28 07:10:34;;;;;;;29.80;15.37;;;;;;;-145.18;100.00;46670.16;4971678;28;20054;-68
2023/04/28 07:13:00;;;;;;;24.37;14.33;;;;;;;-145.18;100.00;46668.22;4970127;28;20129;-68
2023/04/28 07:15:26;;;;;;;24.43;14.70;;;;;;;-145.18;100.00;46670.16;4971021;28;20047;-68
2023/04/28 07:17:51;;;;;;;24.27;14.50;;;;;;;-145.18;100.00;46666.25;4989025;28;20088;-68
2023/04/28 07:20:16;;;;;;;28.43;16.17;;;;;;;-145.18;100.00;46670.16;4976796;28;20133;-68
2023/04/28 07:22:42;;;;;;;25.57;13.87;;;;;;;-145.18;100.00;46668.22;4961368;28;20038;-68
2023/04/28 07:25:08;;;;;;;24.90;15.00;;;;;;;-145.18;100.00;46654.53;4966190;28;20185;-68
2023/04/28 07:27:33;;;;;;;25.87;15.10;;;;;;;-145.18;100.00;46658.44;4971577;28;20039;-69
2023/04/28 07:29:59;;;;;;;24.43;15.43;;;;;;;-145.18;100.00;46660.41;4967002;28;20027;-69
2023/04/28 07:32:24;;;;;;;24.53;15.00;;;;;;;-145.18;100.00;46664.31;4970631;28;20030;-69
2023/04/28 07:34:50;;;;;;;26.60;15.93;;;;;;;-145.18;100.00;46664.31;4969845;28;20031;-69
2023/04/28 07:37:16;;;;;;;25.83;15.67;;;;;;;-145.18;100.00;46658.44;4971503;28;20042;-70
2023/04/28 07:39:41;;;;;;;30.93;17.07;;;;;;;-145.18;100.00;46654.53;4970707;28;20038;-69
2023/04/28 07:42:06;;;;;;;27.77;16.13;;;;;;;-145.18;100.00;46650.63;4970357;28;20451;-69
2023/04/28 07:44:32;;;;;;;30.63;16.80;;;;;;;-145.18;100.00;46654.53;4977742;28;20451;-70
2023/04/28 07:46:59;;;;;;;27.90;16.27;;;;;;;-145.18;100.00;46652.59;4970611;28;20061;-70
2023/04/28 07:49:25;;;;;;;28.03;16.63;;;;;;;-145.18;100.00;46654.53;4963056;28;20097;-70
2023/04/28 07:51:53;;;;;;;26.87;16.70;;;;;;;-145.18;100.00;46648.69;4970740;28;20292;-70
2023/04/28 07:54:19;;;;;;;25.47;15.90;;;;;;;-145.18;100.00;46650.63;4966811;28;20307;-70
2023/04/28 07:56:44;;;;;;;33.17;16.97;;;;;;;-145.18;100.00;46644.78;4967868;28;20281;-71
2023/04/28 07:59:09;;;;;;;24.60;16.87;;;;;;;-145.18;100.00;46646.72;4969099;28;20448;-71
2023/04/28 08:01:35;;;;;;;27.57;17.70;;;;;;;-145.18;100.00;46646.72;4969128;28;20094;-71
2023/04/28 08:04:00;;;;;;;32.47;18.40;;;;;;;-145.18;100.00;46646.72;4966704;28;20034;-70
2023/04/28 08:06:26;;;;;;;33.13;18.43;;;;;;;-145.18;100.00;46646.72;4954513;28;20031;-71
2023/04/28 08:08:51;;;;;;;27.90;17.47;;;;;;;-145.18;100.00;46644.78;4968727;28;20495;-71
2023/04/28 08:11:17;;;;;;;34.97;18.97;;;;;;;-145.18;100.00;46648.69;4968948;28;20035;-71
2023/04/28 08:13:42;;;;;;;29.17;17.47;;;;;;;-145.18;100.00;46640.88;4963520;28;20038;-71
2023/04/28 08:16:07;;;;;;;29.17;16.83;;;;;;;-145.18;100.00;46644.78;4970163;28;20047;-71
2023/04/28 08:18:33;;;;;;;29.13;17.53;;;;;;;-145.18;100.00;46644.78;4970573;28;20035;-71
2023/04/28 08:20:58;;;;;;;29.90;17.67;;;;;;;-145.18;100.00;46642.81;4970734;28;20182;-71
2023/04/28 08:23:27;;;;;;;28.10;16.23;;;;;;;-145.18;100.00;46648.69;4970776;28;20039;-71
2023/04/28 08:25:53;;;;;;;32.13;16.70;;;;;;;-145.18;100.00;46640.88;4951139;28;20631;-71
2023/04/28 08:28:18;;;;;;;29.70;17.30;;;;;;;-145.18;100.00;46646.72;4970573;28;20288;-71
2023/04/28 08:30:43;;;;;;;33.77;18.50;;;;;;;-145.18;100.00;46644.78;4969501;28;20031;-72
2023/04/28 08:33:09;;;;;;;29.67;17.00;;;;;;;-145.18;100.00;46646.72;4970417;28;20066;-72
2023/04/28 08:35:34;;;;;;;29.70;18.07;;;;;;;-145.18;100.00;46644.78;4970839;28;20499;-72
2023/04/28 08:38:00;;;;;;;36.33;19.10;;;;;;;-145.18;100.00;46638.91;4982691;28;20407;-72
2023/04/28 08:40:25;;;;;;;31.37;18.03;;;;;;;-145.18;100.00;46636.94;4976407;28;20534;-72
2023/04/28 08:42:51;;;;;;;35.43;18.73;;;;;;;-145.18;100.00;46642.81;4956748;28;20082;-72
2023/04/28 08:45:16;;;;;;;29.77;18.60;;;;;;;-145.18;100.00;46642.81;4974431;28;20091;-72
2023/04/28 08:47:46;;;;;;;29.60;17.63;;;;;;;-145.18;100.00;46638.91;4974211;28;20031;-72
2023/04/28 08:50:13;;;;;;;28.67;16.97;;;;;;;-145.18;100.00;46638.91;4957191;28;20058;-72
2023/04/28 08:52:39;;;;;;;30.20;18.50;;;;;;;-145.18;100.00;46640.88;4986336;28;20038;-72
2023/04/28 08:55:10;;;;;;;33.53;19.73;;;;;;;-145.18;100.00;46638.91;4982000;28;20030;-72
2023/04/28 08:57:38;;;;;;;33.17;18.43;;;;;;;-145.18;100.00;46642.81;4954742;29;20118;-72
2023/04/28 09:00:05;;;;;;;28.07;17.10;;;;;;;-145.18;100.00;46642.81;4964059;28;20042;-72
2023/04/28 09:02:31;;;;;;;29.90;17.77;;;;;;;-145.18;100.00;46640.88;4973656;28;20031;-72
2023/04/28 09:04:56;;;;;;;27.23;16.13;;;;;;;-145.18;100.00;46636.94;4969975;28;20547;-72
2023/04/28 09:07:22;;;;;;;27.33;16.53;;;;;;;-145.18;100.00;46640.88;4973214;28;20039;-72
2023/04/28 09:09:47;;;;;;;28.33;17.00;;;;;;;-145.18;100.00;46636.94;4972839;28;20038;-73
2023/04/28 09:12:12;;;;;;;25.70;17.23;;;;;;;-145.18;100.00;46640.88;4973824;28;20038;-72
2023/04/28 09:14:38;;;;;;;26.80;17.20;;;;;;;-145.18;100.00;46640.88;4973535;28;20089;-72
2023/04/28 09:17:11;;;;;;;23.03;15.70;;;;;;;-145.18;100.00;46642.81;4973700;28;20086;-72
2023/04/28 09:19:38;;;;;;;24.47;15.70;;;;;;;-145.18;100.00;46636.94;4963853;28;20030;-72
2023/04/28 09:22:04;;;;;;;26.07;16.80;;;;;;;-145.18;100.00;46636.94;4963061;28;20030;-72
2023/04/28 09:24:42;;;;;;;25.47;15.97;;;;;;;-145.18;100.00;46640.88;4973286;28;20082;-72
2023/04/28 09:27:10;;;;;;;26.20;16.67;;;;;;;-145.18;100.00;46640.88;4973625;28;20062;-72
2023/04/28 09:29:37;;;;;;;29.73;17.57;;;;;;;-145.18;100.00;46642.81;4975418;28;20031;-72
2023/04/28 09:32:11;;;;;;;29.77;18.33;;;;;;;-145.18;100.00;46638.91;4982977;28;20030;-72
2023/04/28 09:34:46;;;;;;;30.20;17.57;;;;;;;-145.18;100.00;46642.81;4977475;28;20109;-72
2023/04/28 09:37:16;;;;;;;32.65;17.95;;;;;;;-145.18;100.00;46638.91;4979331;28;20038;-72
2023/04/28 09:39:44;;;;;;;32.37;17.80;;;;;;;-145.18;100.00;46642.81;4981138;28;20074;-72
2023/04/28 09:42:09;;;;;;;32.90;17.73;;;;;;;-145.18;100.00;46644.78;4980428;28;20038;-72
2023/04/28 09:44:35;;;;;;;28.47;18.30;;;;;;;-145.18;100.00;46640.88;4970160;28;20023;-72
2023/04/28 09:47:19;;;;;;;31.10;17.47;;;;;;;-145.18;100.00;46642.81;4973168;28;20099;-72
2023/04/28 09:49:55;;;;;;;30.43;18.33;;;;;;;-145.18;100.00;46640.88;4973421;28;20046;-72
2023/04/28 09:52:21;;;;;;;;;;;;;;;-145.18;100.00;46642.81;4973062;28;20046;-72
2023/04/28 09:54:48;;;;;;;;;;;;;;;-145.18;100.00;46640.88;4972970;28;19918;-73
2023/04/28 09:57:15;;;;;;;35.47;18.33;;;;;;;-145.18;100.00;46640.88;4973136;28;20324;-72
2023/04/28 09:59:42;;;;;;;32.27;18.33;;;;;;;-145.18;100.00;46640.88;4983142;28;20031;-72
2023/04/28 10:02:08;;;;;;;33.40;17.73;;;;;;;-145.18;100.00;46640.88;4977498;28;20074;-72
2023/04/28 10:04:34;;;;;;;33.97;18.60;;;;;;;-145.18;100.00;46638.91;4980996;28;20126;-72
2023/04/28 10:07:00;;;;;;;27.13;15.53;;;;;;;-145.18;100.00;46640.88;4972745;28;20050;-72
2023/04/28 10:09:27;;;;;;;28.03;14.20;;;;;;;-145.18;100.00;46640.88;4972277;28;20038;-72
2023/04/28 10:11:53;;;;;;;25.47;14.03;;;;;;;-145.18;100.00;46636.94;4972840;28;20035;-72
2023/04/28 10:14:19;;;;;;;27.47;14.67;;;;;;;-145.18;100.00;46642.81;4972931;28;20038;-72
2023/04/28 10:16:45;;;;;;;23.63;12.77;;;;;;;-145.18;100.00;46644.78;4972506;28;20031;-72
2023/04/28 10:19:11;;;;;;;18.47;10.87;;;;;;;-145.18;100.00;46640.88;4966386;28;20039;-72
2023/04/28 10:21:46;;;;;;;17.17;9.50;;;;;;;-145.18;100.00;46644.78;4971264;28;20038;-72
2023/04/28 10:24:17;;;;;;;14.98;8.55;;;;;;;-145.18;100.00;46636.94;4973048;28;20026;-72
2023/04/28 10:27:04;;;;;;;19.53;9.30;;;;;;;-145.18;100.00;46644.78;4971479;28;20407;-72
2023/04/28 10:29:34;;;;;;;22.27;8.63;;;;;;;-145.18;100.00;46640.88;4970874;28;20027;-72
2023/04/28 10:32:19;;;;;;;15.23;8.90;;;;;;;-145.18;100.00;46640.88;4967338;28;20042;-72
2023/04/28 10:34:44;;;;;;;20.00;9.30;;;;;;;-145.18;100.00;46640.88;4970330;28;20101;-72
2023/04/28 10:37:10;;;;;;;21.27;8.63;;;;;;;-145.18;100.00;46640.88;4971901;28;20035;-72
2023/04/28 10:39:35;;;;;;;16.57;9.57;;;;;;;-145.18;100.00;46636.94;4972086;28;20038;-72
2023/04/28 10:42:01;;;;;;;18.93;10.03;;;;;;;-145.18;100.00;46640.88;4971972;28;20483;-72
2023/04/28 10:44:26;;;;;;;21.13;9.83;;;;;;;-145.18;100.00;46636.94;4978234;28;20034;-72
2023/04/28 10:47:03;;;;;;;19.77;10.40;;;;;;;-145.18;100.00;46636.94;4971483;28;20023;-72
2023/04/28 10:49:56;;;;;;;16.50;9.83;;;;;;;-145.18;100.00;46640.88;4956105;28;20061;-72
2023/04/28 10:52:40;;;;;;;16.60;9.70;;;;;;;-145.18;100.00;46644.78;4971840;28;20043;-72
2023/04/28 10:55:29;;;;;;;16.33;9.17;;;;;;;-145.18;100.00;46642.81;4970933;28;20045;-72